Kirchberg-Wetter.de


Hier erfahren Sie, wie das Wetter wird...


WebCam am Fuchsberg more information WebCam am Fuchsberg


Thunder radar more information blitzortung!


Rain radar more information rain snow radar


Besuchen Sie unsere anderen Wetter Stationen:

Template documentation
and downloads

And another site



Nebel Gültig von: 17-11-2019 17:52 bis: 18-11-2019 00:00 Warnung für: Nebel Gefahrenstufe: Gelb info button
deutsch:
Es tritt gebietsweise Nebel mit Sichtweiten unter 150 Metern auf. 

METAR-Meldungen aus der Umgebung

   
EHVK - Volkel Rnlafb, Netherlands
Entfernung von der Station bis: SW 18 km
Aktualisierung: 17-11-2019 23:08
Leichter Niederschlag möglich, Stark bewölkt  
Leichter Niederschlag möglich, Stark bewölkt  
   Wind: Norden 7.4 km/h
Wind: Norden 7.4 km/h
Temperatur: 4°C
Gefühlt: 2°C
Taupunkt: 3°C
Luftfeuchte: 93%
Luftdruck: 1009 hPa
Bewölkt: Stark bewölkt
Sichtbarkeit: 5 km
Bewölkung: Stark bewölkt 1500 ft,
Teilweise bewölkt 2000 ft,
Stark bewölkt 2400 ft,
Stark bewölkt 2800 ft
EHVK 172208Z AUTO 35004KT 5000 -RA BKN015CB SCT020 BKN024 BKN028 04/03 Q1009 WHT
EDLV - Niederrhein, Germany
Entfernung von der Station bis: SO 25 km
Aktualisierung: 17-11-2019 22:50
Leichter Niederschlag möglich, Nebel, Teilweise bewölkt  
Leichter Niederschlag möglich, Nebel, Teilweise bewölkt  
   Wind: variiert 5.6 km/h
Wind: variiert 5.6 km/h
Temperatur: 4°C
Gefühlt: 3°C
Taupunkt: 4°C
Luftfeuchte: 100%
Luftdruck: 1008 hPa
Bewölkt: Teilweise bewölkt
Sichtbarkeit: 5 km
Bewölkung: Teilweise bewölkt 2500 ft
EDLV 172150Z VRB03KT 4500 -RA BR SCT025 04/04 Q1008
EHDL - Deelen Rnlafb, Netherlands
Entfernung von der Station bis: N 35 km
Aktualisierung: 17-11-2019 22:55
Leichter Niederschlag möglich, Stark bewölkt  
Leichter Niederschlag möglich, Stark bewölkt  
   Wind: Norden 13 km/h
Wind: Norden 13 km/h
Temperatur: 4°C
Gefühlt: 1°C
Taupunkt: 3°C
Luftfeuchte: 93%
Luftdruck: 1009 hPa
Bewölkt: Stark bewölkt
Sichtbarkeit: 5 km
Bewölkung: Stark bewölkt 1500 ft,
Teilweise bewölkt 3000 ft,
Stark bewölkt 3500 ft
EHDL 172155Z AUTO 01007KT 320V050 5000 -RA BKN015CB SCT030 BKN035 04/03 Q1009 RERA WHT
EHEH - Eindhoven Rnlafb, Netherlands
Entfernung von der Station bis: SW 48 km
Aktualisierung: 17-11-2019 22:55
Regenschauer, Regen, Bewölkt  
Regenschauer, Regen, Bewölkt  
   Wind: NNW 13 km/h
Wind: NNW 13 km/h
Temperatur: 4°C
Gefühlt: 1°C
Taupunkt: 3°C
Luftfeuchte: 93%
Luftdruck: 1009 hPa
Bewölkt: Bewölkt
Sichtbarkeit: 6 km
Bewölkung: Teilweise bewölkt 1500 ft,
Bewölkt 3100 ft
EHEH 172155Z AUTO 33007KT 280V020 6000 SHRA SCT015CB OVC031 04/03 Q1009 WHT 36007KT CAVOK BECMG 4500 -DZRA FEW025 SCT035 OVC090
EHGR - Gilze-Rijen Rnla, Netherlands
Entfernung von der Station bis: WSW 70 km
Aktualisierung: 17-11-2019 22:55
Nebel, Bewölkt  
Nebel, Bewölkt  
   Wind: Norden 11.1 km/h
Wind: Norden 11.1 km/h
Temperatur: 4°C
Gefühlt: 1°C
Taupunkt: 3°C
Luftfeuchte: 93%
Luftdruck: 1009 hPa
Bewölkt: Bewölkt
Sichtbarkeit: 8 km
Bewölkung: leicht bewölkt 7000 ft,
Teilweise bewölkt 7500 ft,
Bewölkt 8100 ft
EHGR 172155Z AUTO 36006KT 320V050 8000 BR FEW070 SCT075 OVC081 04/03 Q1009 BLU
EBBL - Kleine-Brogel(Ba, Belgium
Entfernung von der Station bis: SSW 71 km
Aktualisierung: 17-11-2019 22:55
Leichter Niederschlag möglich, Bewölkt  
Leichter Niederschlag möglich, Bewölkt  
   Wind: NNW 9.3 km/h
Wind: NNW 9.3 km/h
Temperatur: 4°C
Gefühlt: 2°C
Taupunkt: 3°C
Luftfeuchte: 93%
Luftdruck: 1009 hPa
Bewölkt: Bewölkt
Sichtbarkeit: 6 km
Bewölkung: Bewölkt 2400 ft
EBBL 172155Z AUTO 34005KT 6000 -RA OVC024/// 04/03 Q1009 WHT

Script entwickelt von  Saratoga-weather.org Angepasst für das Template von  Weerstation Leuven

Sie finden unser Wetter-Infos auch auf:

Weather Underground

WeatherlinkIP

Wetternetz-Sachsen

Von uns verwendete Ausrüstung:

Wetterstation
Davis Vantage Pro2 Plus

Wetterprogramm
Meteobridge

WetterComputer
TP-Link TL-MR3020

Davis Vantage Pro2 Plus

Meteobridge

TP-Link TL-MR3020